Salto do Urubupunga, Brazil
Current Conditions -  °F | °C
As of 4:00 PM on Wednesday 28 Jan 2015 (Local Time) from SBDN Reporting Station
Broken Clouds Broken Clouds  
Wind Chill: 88°   Ceiling: 4000
Heat Index: 90°   Visibility: 6mi
Dew Point: 66°   Wind: 7mph
Humidity: 49%   Direction: 30°NNE
Pressure: 29.85"   Gusts: NA
Location:  20.8°S, 51.57°W
Report Text: SBDN 281800Z 03006KT 9999 BKN040 31/19 Q1011
Loading
Personal Weather Stations






























Interactive Weather Map New forecast layout! Learn more

10-Day Weather Forecast

Advertisements
Track Severe Weather on mobile